sensor_id;sensor_type;location;lat;lon;timestamp;pressure;altitude;pressure_sealevel;temperature;humidity
45345;BME280;31078;48.304;11.896;2022-09-09T00:01:43;96053.22;;;15.84;76.42
45345;BME280;31078;48.304;11.896;2022-09-09T00:04:16;96053.50;;;15.79;76.37
45345;BME280;31078;48.304;11.896;2022-09-09T00:06:55;96053.34;;;15.72;76.45
45345;BME280;31078;48.304;11.896;2022-09-09T00:09:25;96054.50;;;15.71;76.42
45345;BME280;31078;48.304;11.896;2022-09-09T00:11:57;96055.03;;;15.61;76.79
45345;BME280;31078;48.304;11.896;2022-09-09T00:14:36;96053.69;;;15.55;77.47
45345;BME280;31078;48.304;11.896;2022-09-09T00:17:09;96054.78;;;15.50;77.39
45345;BME280;31078;48.304;11.896;2022-09-09T00:19:41;96051.31;;;15.53;77.33
45345;BME280;31078;48.304;11.896;2022-09-09T00:22:17;96054.88;;;15.54;77.52
45345;BME280;31078;48.304;11.896;2022-09-09T00:24:45;96054.94;;;15.57;77.84
45345;BME280;31078;48.304;11.896;2022-09-09T00:27:17;96055.75;;;15.58;77.59
45345;BME280;31078;48.304;11.896;2022-09-09T00:29:45;96054.94;;;15.57;77.74
45345;BME280;31078;48.304;11.896;2022-09-09T00:32:17;96057.97;;;15.52;77.60
45345;BME280;31078;48.304;11.896;2022-09-09T00:34:48;96059.31;;;15.43;77.40
45345;BME280;31078;48.304;11.896;2022-09-09T00:37:16;96059.47;;;15.34;77.19
45345;BME280;31078;48.304;11.896;2022-09-09T00:39:46;96053.94;;;15.30;77.25
45345;BME280;31078;48.304;11.896;2022-09-09T00:42:16;96048.72;;;15.25;77.21
45345;BME280;31078;48.304;11.896;2022-09-09T00:44:53;96049.41;;;15.22;76.96
45345;BME280;31078;48.304;11.896;2022-09-09T00:47:43;96053.94;;;15.30;77.51
45345;BME280;31078;48.304;11.896;2022-09-09T00:50:19;96051.88;;;15.27;77.33
45345;BME280;31078;48.304;11.896;2022-09-09T00:52:59;96047.84;;;15.21;77.32
45345;BME280;31078;48.304;11.896;2022-09-09T00:55:33;96049.31;;;15.19;77.34
45345;BME280;31078;48.304;11.896;2022-09-09T00:58:07;96056.06;;;15.21;77.32
45345;BME280;31078;48.304;11.896;2022-09-09T01:00:40;96050.94;;;15.20;77.26
45345;BME280;31078;48.304;11.896;2022-09-09T01:03:22;96060.28;;;15.19;76.73
45345;BME280;31078;48.304;11.896;2022-09-09T01:06:02;96059.69;;;15.25;77.10
45345;BME280;31078;48.304;11.896;2022-09-09T01:08:59;96050.16;;;15.19;77.08
45345;BME280;31078;48.304;11.896;2022-09-09T01:11:35;96054.63;;;15.27;76.90
45345;BME280;31078;48.304;11.896;2022-09-09T01:14:22;96056.50;;;15.23;76.89
45345;BME280;31078;48.304;11.896;2022-09-09T01:16:54;96052.59;;;15.24;76.82
45345;BME280;31078;48.304;11.896;2022-09-09T01:19:35;96048.63;;;15.22;77.12
45345;BME280;31078;48.304;11.896;2022-09-09T01:22:09;96048.09;;;15.16;77.10
45345;BME280;31078;48.304;11.896;2022-09-09T01:24:43;96047.72;;;15.18;77.08
45345;BME280;31078;48.304;11.896;2022-09-09T01:27:15;96047.94;;;15.25;77.09
45345;BME280;31078;48.304;11.896;2022-09-09T01:29:43;96052.78;;;15.16;76.69
45345;BME280;31078;48.304;11.896;2022-09-09T01:32:44;96055.16;;;15.17;76.71
45345;BME280;31078;48.304;11.896;2022-09-09T01:35:14;96050.56;;;15.21;76.34
45345;BME280;31078;48.304;11.896;2022-09-09T01:37:42;96049.00;;;15.20;76.43
45345;BME280;31078;48.304;11.896;2022-09-09T01:40:09;96050.22;;;15.07;76.49
45345;BME280;31078;48.304;11.896;2022-09-09T01:42:36;96057.03;;;15.13;76.68
45345;BME280;31078;48.304;11.896;2022-09-09T01:45:04;96053.41;;;15.09;76.75
45345;BME280;31078;48.304;11.896;2022-09-09T01:47:31;96042.88;;;15.11;77.39
45345;BME280;31078;48.304;11.896;2022-09-09T01:49:58;96048.88;;;15.17;76.74
45345;BME280;31078;48.304;11.896;2022-09-09T01:52:25;96054.91;;;15.22;77.10
45345;BME280;31078;48.304;11.896;2022-09-09T01:54:52;96052.59;;;15.24;77.08
45345;BME280;31078;48.304;11.896;2022-09-09T01:57:22;96044.81;;;15.26;76.97
45345;BME280;31078;48.304;11.896;2022-09-09T02:00:03;96051.00;;;15.23;77.16
45345;BME280;31078;48.304;11.896;2022-09-09T02:02:35;96053.03;;;15.26;77.09
45345;BME280;31078;48.304;11.896;2022-09-09T02:05:16;96046.03;;;15.29;77.25
45345;BME280;31078;48.304;11.896;2022-09-09T02:07:47;96048.88;;;15.32;77.16
45345;BME280;31078;48.304;11.896;2022-09-09T02:10:21;96048.88;;;15.32;77.50
45345;BME280;31078;48.304;11.896;2022-09-09T02:12:53;96050.47;;;15.33;77.35
45345;BME280;31078;48.304;11.896;2022-09-09T02:15:26;96045.09;;;15.21;77.60
45345;BME280;31078;48.304;11.896;2022-09-09T02:17:57;96051.91;;;14.96;78.15
45345;BME280;31078;48.304;11.896;2022-09-09T02:20:25;96049.59;;;14.98;78.11
45345;BME280;31078;48.304;11.896;2022-09-09T02:22:53;96050.19;;;14.59;79.16
45345;BME280;31078;48.304;11.896;2022-09-09T02:25:23;96054.88;;;14.59;79.74
45345;BME280;31078;48.304;11.896;2022-09-09T02:27:51;96051.06;;;14.48;80.32
45345;BME280;31078;48.304;11.896;2022-09-09T02:30:18;96057.59;;;14.59;80.31
45345;BME280;31078;48.304;11.896;2022-09-09T02:32:48;96045.25;;;14.65;80.25
45345;BME280;31078;48.304;11.896;2022-09-09T02:35:19;96048.19;;;14.72;80.10
45345;BME280;31078;48.304;11.896;2022-09-09T02:37:49;96047.56;;;14.79;79.85
45345;BME280;31078;48.304;11.896;2022-09-09T02:40:17;96046.25;;;14.88;79.80
45345;BME280;31078;48.304;11.896;2022-09-09T02:42:45;96041.19;;;14.91;79.99
45345;BME280;31078;48.304;11.896;2022-09-09T02:45:16;96034.75;;;14.99;80.01
45345;BME280;31078;48.304;11.896;2022-09-09T02:47:50;96041.56;;;15.05;79.86
45345;BME280;31078;48.304;11.896;2022-09-09T02:50:22;96043.56;;;15.08;78.25
45345;BME280;31078;48.304;11.896;2022-09-09T02:53:05;96047.38;;;15.03;78.89
45345;BME280;31078;48.304;11.896;2022-09-09T02:55:39;96048.63;;;14.90;79.12
45345;BME280;31078;48.304;11.896;2022-09-09T02:58:09;96044.09;;;14.98;79.13
45345;BME280;31078;48.304;11.896;2022-09-09T03:00:38;96041.88;;;15.03;79.40
45345;BME280;31078;48.304;11.896;2022-09-09T03:03:06;96036.34;;;15.00;79.33
45345;BME280;31078;48.304;11.896;2022-09-09T03:05:34;96025.44;;;15.03;79.22
45345;BME280;31078;48.304;11.896;2022-09-09T03:08:01;96022.38;;;15.05;79.04
45345;BME280;31078;48.304;11.896;2022-09-09T03:10:27;96026.97;;;15.01;78.71
45345;BME280;31078;48.304;11.896;2022-09-09T03:12:54;96026.25;;;15.04;78.26
45345;BME280;31078;48.304;11.896;2022-09-09T03:15:21;96020.06;;;15.07;78.08
45345;BME280;31078;48.304;11.896;2022-09-09T03:17:48;96027.22;;;15.11;78.19
45345;BME280;31078;48.304;11.896;2022-09-09T03:20:16;96017.94;;;15.16;78.36
45345;BME280;31078;48.304;11.896;2022-09-09T03:22:42;96029.25;;;15.14;78.40
45345;BME280;31078;48.304;11.896;2022-09-09T03:25:10;96022.53;;;15.12;78.06
45345;BME280;31078;48.304;11.896;2022-09-09T03:27:36;96027.38;;;15.19;78.14
45345;BME280;31078;48.304;11.896;2022-09-09T03:30:04;96027.47;;;15.22;78.64
45345;BME280;31078;48.304;11.896;2022-09-09T03:32:31;96022.09;;;15.26;78.53
45345;BME280;31078;48.304;11.896;2022-09-09T03:34:57;96022.16;;;15.29;77.86
45345;BME280;31078;48.304;11.896;2022-09-09T03:37:25;96017.38;;;15.26;77.71
45345;BME280;31078;48.304;11.896;2022-09-09T03:39:52;96022.41;;;15.24;77.32
45345;BME280;31078;48.304;11.896;2022-09-09T03:42:19;96020.56;;;15.28;77.23
45345;BME280;31078;48.304;11.896;2022-09-09T03:44:48;96018.44;;;15.37;77.86
45345;BME280;31078;48.304;11.896;2022-09-09T03:47:16;96012.78;;;15.30;77.83
45345;BME280;31078;48.304;11.896;2022-09-09T03:49:43;96010.75;;;15.27;77.93
45345;BME280;31078;48.304;11.896;2022-09-09T03:52:10;96013.41;;;15.24;77.57
45345;BME280;31078;48.304;11.896;2022-09-09T03:54:38;96013.34;;;15.20;77.59
45345;BME280;31078;48.304;11.896;2022-09-09T03:57:04;96010.84;;;15.15;77.95
45345;BME280;31078;48.304;11.896;2022-09-09T03:59:31;96008.66;;;15.05;78.53
45345;BME280;31078;48.304;11.896;2022-09-09T04:01:58;96009.97;;;15.11;78.48
45345;BME280;31078;48.304;11.896;2022-09-09T04:04:24;96010.84;;;15.15;78.32
45345;BME280;31078;48.304;11.896;2022-09-09T04:06:51;96008.53;;;15.17;78.77
45345;BME280;31078;48.304;11.896;2022-09-09T04:09:18;96007.06;;;15.20;78.69
45345;BME280;31078;48.304;11.896;2022-09-09T04:11:45;96006.81;;;15.09;78.80
45345;BME280;31078;48.304;11.896;2022-09-09T04:14:12;96009.63;;;14.97;78.57
45345;BME280;31078;48.304;11.896;2022-09-09T04:16:38;96010.66;;;15.08;78.53
45345;BME280;31078;48.304;11.896;2022-09-09T04:19:08;96014.03;;;15.17;78.72
45345;BME280;31078;48.304;11.896;2022-09-09T04:21:37;96017.84;;;15.12;78.23
45345;BME280;31078;48.304;11.896;2022-09-09T04:24:05;96007.13;;;15.07;78.58
45345;BME280;31078;48.304;11.896;2022-09-09T04:26:31;96012.81;;;14.99;79.08
45345;BME280;31078;48.304;11.896;2022-09-09T04:28:59;96011.84;;;14.91;79.75
45345;BME280;31078;48.304;11.896;2022-09-09T04:31:26;96011.03;;;14.91;79.88
45345;BME280;31078;48.304;11.896;2022-09-09T04:33:52;95999.53;;;15.01;79.64
45345;BME280;31078;48.304;11.896;2022-09-09T04:36:19;96003.59;;;15.07;79.41
45345;BME280;31078;48.304;11.896;2022-09-09T04:38:46;95999.69;;;15.08;79.44
45345;BME280;31078;48.304;11.896;2022-09-09T04:41:14;95999.00;;;15.11;79.24
45345;BME280;31078;48.304;11.896;2022-09-09T04:43:42;95998.31;;;15.14;78.88
45345;BME280;31078;48.304;11.896;2022-09-09T04:46:10;95993.88;;;15.09;79.89
45345;BME280;31078;48.304;11.896;2022-09-09T04:48:36;95992.81;;;15.14;79.64
45345;BME280;31078;48.304;11.896;2022-09-09T04:51:05;95992.81;;;15.14;79.59
45345;BME280;31078;48.304;11.896;2022-09-09T04:53:32;95991.13;;;15.09;79.85
45345;BME280;31078;48.304;11.896;2022-09-09T04:56:03;95994.31;;;15.11;79.67
45345;BME280;31078;48.304;11.896;2022-09-09T04:58:30;96002.97;;;15.13;79.76
45345;BME280;31078;48.304;11.896;2022-09-09T05:01:06;96013.50;;;14.96;80.12
45345;BME280;31078;48.304;11.896;2022-09-09T05:03:34;96010.16;;;14.86;80.55
45345;BME280;31078;48.304;11.896;2022-09-09T05:06:05;96005.91;;;14.73;81.19
45345;BME280;31078;48.304;11.896;2022-09-09T05:08:33;95999.38;;;14.62;81.67
45345;BME280;31078;48.304;11.896;2022-09-09T05:11:00;95999.28;;;14.58;82.30
45345;BME280;31078;48.304;11.896;2022-09-09T05:13:26;95997.16;;;14.68;82.32
45345;BME280;31078;48.304;11.896;2022-09-09T05:15:53;95999.03;;;14.79;82.07
45345;BME280;31078;48.304;11.896;2022-09-09T05:18:20;95996.91;;;14.88;82.09
45345;BME280;31078;48.304;11.896;2022-09-09T05:20:49;95991.41;;;14.88;81.82
45345;BME280;31078;48.304;11.896;2022-09-09T05:23:16;95993.78;;;14.90;82.35
45345;BME280;31078;48.304;11.896;2022-09-09T05:25:43;96002.56;;;14.96;82.16
45345;BME280;31078;48.304;11.896;2022-09-09T05:28:11;96000.25;;;14.98;82.23
45345;BME280;31078;48.304;11.896;2022-09-09T05:30:38;96007.34;;;14.99;82.11
45345;BME280;31078;48.304;11.896;2022-09-09T05:33:04;96013.25;;;15.01;81.76
45345;BME280;31078;48.304;11.896;2022-09-09T05:35:31;96014.13;;;15.05;81.99
45345;BME280;31078;48.304;11.896;2022-09-09T05:38:00;96020.06;;;15.07;82.03
45345;BME280;31078;48.304;11.896;2022-09-09T05:40:27;96018.38;;;15.02;81.67
45345;BME280;31078;48.304;11.896;2022-09-09T05:42:53;96017.03;;;15.12;81.75
45345;BME280;31078;48.304;11.896;2022-09-09T05:45:19;96027.38;;;15.19;81.47
45345;BME280;31078;48.304;11.896;2022-09-09T05:47:51;96031.03;;;15.07;81.12
45345;BME280;31078;48.304;11.896;2022-09-09T05:50:18;96034.28;;;15.12;80.92
45345;BME280;31078;48.304;11.896;2022-09-09T05:52:45;96032.44;;;15.01;81.14
45345;BME280;31078;48.304;11.896;2022-09-09T05:55:13;96028.47;;;14.98;81.25
45345;BME280;31078;48.304;11.896;2022-09-09T05:57:39;96026.69;;;15.06;81.25
45345;BME280;31078;48.304;11.896;2022-09-09T06:00:07;96022.38;;;15.05;81.39
45345;BME280;31078;48.304;11.896;2022-09-09T06:02:33;96017.84;;;15.12;81.23
45345;BME280;31078;48.304;11.896;2022-09-09T06:05:02;96020.25;;;15.14;81.43
45345;BME280;31078;48.304;11.896;2022-09-09T06:07:28;96014.50;;;15.19;81.47
45345;BME280;31078;48.304;11.896;2022-09-09T06:09:55;96022.88;;;15.10;81.60
45345;BME280;31078;48.304;11.896;2022-09-09T06:12:23;96024.31;;;15.20;81.35
45345;BME280;31078;48.304;11.896;2022-09-09T06:14:49;96025.00;;;15.17;81.17
45345;BME280;31078;48.304;11.896;2022-09-09T06:17:17;96021.28;;;15.25;80.86
45345;BME280;31078;48.304;11.896;2022-09-09T06:19:43;96030.09;;;15.34;81.16
45345;BME280;31078;48.304;11.896;2022-09-09T06:22:09;96020.75;;;15.35;81.37
45345;BME280;31078;48.304;11.896;2022-09-09T06:24:37;96024.00;;;15.41;81.17
45345;BME280;31078;48.304;11.896;2022-09-09T06:27:04;96024.59;;;15.50;81.02
45345;BME280;31078;48.304;11.896;2022-09-09T06:29:33;96021.94;;;15.54;80.57
45345;BME280;31078;48.304;11.896;2022-09-09T06:32:00;96021.00;;;15.46;79.87
45345;BME280;31078;48.304;11.896;2022-09-09T06:34:26;96014.16;;;15.56;80.71
45345;BME280;31078;48.304;11.896;2022-09-09T06:36:53;96012.53;;;15.55;80.34
45345;BME280;31078;48.304;11.896;2022-09-09T06:39:22;96022.38;;;15.56;80.68
45345;BME280;31078;48.304;11.896;2022-09-09T06:41:49;96021.94;;;15.54;79.98
45345;BME280;31078;48.304;11.896;2022-09-09T06:44:18;96026.28;;;15.39;79.59
45345;BME280;31078;48.304;11.896;2022-09-09T06:46:46;96020.34;;;15.53;79.16
45345;BME280;31078;48.304;11.896;2022-09-09T06:49:13;96023.38;;;15.48;79.46
45345;BME280;31078;48.304;11.896;2022-09-09T06:51:40;96032.66;;;15.43;79.72
45345;BME280;31078;48.304;11.896;2022-09-09T06:54:09;96039.28;;;15.58;80.30
45345;BME280;31078;48.304;11.896;2022-09-09T06:56:37;96040.16;;;15.62;79.79
45345;BME280;31078;48.304;11.896;2022-09-09T06:59:06;96050.63;;;15.56;79.18
45345;BME280;31078;48.304;11.896;2022-09-09T07:01:36;96047.09;;;15.56;79.13
45345;BME280;31078;48.304;11.896;2022-09-09T07:04:04;96036.72;;;15.49;79.77
45345;BME280;31078;48.304;11.896;2022-09-09T07:06:34;96038.13;;;15.59;79.78
45345;BME280;31078;48.304;11.896;2022-09-09T07:09:03;96033.97;;;15.65;79.54
45345;BME280;31078;48.304;11.896;2022-09-09T07:11:32;96027.88;;;15.72;79.07
45345;BME280;31078;48.304;11.896;2022-09-09T07:13:59;96033.78;;;15.74;78.81
45345;BME280;31078;48.304;11.896;2022-09-09T07:16:27;96033.41;;;15.75;78.66
45345;BME280;31078;48.304;11.896;2022-09-09T07:18:54;96037.13;;;15.83;78.85
45345;BME280;31078;48.304;11.896;2022-09-09T07:21:25;96039.50;;;15.84;78.82
45345;BME280;31078;48.304;11.896;2022-09-09T07:23:52;96039.00;;;15.79;79.07
45345;BME280;31078;48.304;11.896;2022-09-09T07:26:20;96049.50;;;15.93;78.76
45345;BME280;31078;48.304;11.896;2022-09-09T07:28:48;96049.41;;;15.89;78.40
45345;BME280;31078;48.304;11.896;2022-09-09T07:31:16;96055.84;;;15.97;78.61
45345;BME280;31078;48.304;11.896;2022-09-09T07:33:44;96062.47;;;15.96;78.99
45345;BME280;31078;48.304;11.896;2022-09-09T07:36:13;96094.50;;;15.88;79.52
45345;BME280;31078;48.304;11.896;2022-09-09T07:38:43;96105.94;;;15.43;83.33
45345;BME280;31078;48.304;11.896;2022-09-09T07:41:14;96114.28;;;15.30;85.16
45345;BME280;31078;48.304;11.896;2022-09-09T07:43:42;96125.84;;;15.08;87.86
45345;BME280;31078;48.304;11.896;2022-09-09T07:46:10;96127.69;;;14.88;91.04
45345;BME280;31078;48.304;11.896;2022-09-09T07:48:37;96129.88;;;14.82;92.17
45345;BME280;31078;48.304;11.896;2022-09-09T07:51:06;96135.66;;;14.65;92.98
45345;BME280;31078;48.304;11.896;2022-09-09T07:53:34;96133.41;;;14.67;93.45
45345;BME280;31078;48.304;11.896;2022-09-09T07:56:07;96132.50;;;14.63;93.50
45345;BME280;31078;48.304;11.896;2022-09-09T07:58:35;96127.19;;;14.70;93.63
45345;BME280;31078;48.304;11.896;2022-09-09T08:01:06;96142.97;;;14.73;93.63
45345;BME280;31078;48.304;11.896;2022-09-09T08:03:33;96138.16;;;14.70;93.73
45345;BME280;31078;48.304;11.896;2022-09-09T08:06:01;96129.34;;;14.93;92.37
45345;BME280;31078;48.304;11.896;2022-09-09T08:08:28;96141.19;;;15.09;90.82
45345;BME280;31078;48.304;11.896;2022-09-09T08:11:04;96137.72;;;15.12;91.29
45345;BME280;31078;48.304;11.896;2022-09-09T08:13:34;96135.50;;;15.18;91.30
45345;BME280;31078;48.304;11.896;2022-09-09T08:16:05;96135.50;;;15.33;90.40
45345;BME280;31078;48.304;11.896;2022-09-09T08:18:32;96145.59;;;15.45;89.21
45345;BME280;31078;48.304;11.896;2022-09-09T08:21:05;96152.06;;;15.53;88.63
45345;BME280;31078;48.304;11.896;2022-09-09T08:23:32;96145.25;;;15.62;88.68
45345;BME280;31078;48.304;11.896;2022-09-09T08:26:03;96146.97;;;15.67;88.69
45345;BME280;31078;48.304;11.896;2022-09-09T08:28:30;96146.97;;;15.67;89.33
45345;BME280;31078;48.304;11.896;2022-09-09T08:31:06;96152.63;;;15.74;88.86
45345;BME280;31078;48.304;11.896;2022-09-09T08:33:33;96161.28;;;15.76;88.59
45345;BME280;31078;48.304;11.896;2022-09-09T08:35:59;96161.00;;;15.81;88.29
45345;BME280;31078;48.304;11.896;2022-09-09T08:38:26;96165.09;;;15.87;88.95
45345;BME280;31078;48.304;11.896;2022-09-09T08:40:59;96168.69;;;15.91;88.98
45345;BME280;31078;48.304;11.896;2022-09-09T08:43:28;96160.78;;;16.06;89.41
45345;BME280;31078;48.304;11.896;2022-09-09T08:46:01;96172.25;;;16.08;88.62
45345;BME280;31078;48.304;11.896;2022-09-09T08:48:43;96173.56;;;16.14;89.75
45345;BME280;31078;48.304;11.896;2022-09-09T08:51:13;96165.31;;;16.14;87.29
45345;BME280;31078;48.304;11.896;2022-09-09T08:53:42;96173.97;;;16.16;87.71
45345;BME280;31078;48.304;11.896;2022-09-09T08:56:12;96167.94;;;16.26;87.12
45345;BME280;31078;48.304;11.896;2022-09-09T08:58:43;96167.72;;;16.35;86.22
45345;BME280;31078;48.304;11.896;2022-09-09T09:01:25;96172.72;;;16.29;85.07
45345;BME280;31078;48.304;11.896;2022-09-09T09:04:00;96176.03;;;16.38;85.25
45345;BME280;31078;48.304;11.896;2022-09-09T09:06:38;96179.94;;;16.37;84.02
45345;BME280;31078;48.304;11.896;2022-09-09T09:09:14;96163.38;;;16.34;83.42
45345;BME280;31078;48.304;11.896;2022-09-09T09:11:47;96168.88;;;16.34;84.47
45345;BME280;31078;48.304;11.896;2022-09-09T09:14:19;96167.72;;;16.35;84.03
45345;BME280;31078;48.304;11.896;2022-09-09T09:16:51;96168.16;;;16.37;83.72
45345;BME280;31078;48.304;11.896;2022-09-09T09:19:20;96157.88;;;16.34;84.04
45345;BME280;31078;48.304;11.896;2022-09-09T09:21:50;96167.38;;;16.36;85.15
45345;BME280;31078;48.304;11.896;2022-09-09T09:24:21;96156.38;;;16.36;85.78
45345;BME280;31078;48.304;11.896;2022-09-09T09:26:50;96153.03;;;16.27;85.74
45345;BME280;31078;48.304;11.896;2022-09-09T09:29:19;96155.06;;;16.30;85.71
45345;BME280;31078;48.304;11.896;2022-09-09T09:31:50;96157.34;;;16.28;86.20
45345;BME280;31078;48.304;11.896;2022-09-09T09:34:17;96155.06;;;16.30;85.99
45345;BME280;31078;48.304;11.896;2022-09-09T09:36:52;96153.47;;;16.29;86.24
45345;BME280;31078;48.304;11.896;2022-09-09T09:39:24;96149.19;;;16.32;86.71
45345;BME280;31078;48.304;11.896;2022-09-09T09:41:52;96143.06;;;16.38;86.97
45345;BME280;31078;48.304;11.896;2022-09-09T09:44:23;96139.00;;;16.32;88.12
45345;BME280;31078;48.304;11.896;2022-09-09T09:46:51;96142.97;;;16.15;87.82
45345;BME280;31078;48.304;11.896;2022-09-09T09:49:18;96143.56;;;16.25;87.59
45345;BME280;31078;48.304;11.896;2022-09-09T09:51:46;96153.81;;;16.28;88.27
45345;BME280;31078;48.304;11.896;2022-09-09T09:54:23;96160.47;;;16.27;87.56
45345;BME280;31078;48.304;11.896;2022-09-09T09:56:52;96155.16;;;16.18;87.18
45345;BME280;31078;48.304;11.896;2022-09-09T09:59:21;96170.25;;;16.24;86.97
45345;BME280;31078;48.304;11.896;2022-09-09T10:01:47;96163.13;;;16.23;87.57
45345;BME280;31078;48.304;11.896;2022-09-09T10:04:15;96166.91;;;16.15;87.05
45345;BME280;31078;48.304;11.896;2022-09-09T10:06:43;96179.47;;;16.16;87.12
45345;BME280;31078;48.304;11.896;2022-09-09T10:09:21;96180.88;;;16.26;87.26
45345;BME280;31078;48.304;11.896;2022-09-09T10:11:54;96181.38;;;16.31;87.02
45345;BME280;31078;48.304;11.896;2022-09-09T10:14:27;96187.31;;;16.33;87.22
45345;BME280;31078;48.304;11.896;2022-09-09T10:17:13;96179.22;;;16.40;86.72
45345;BME280;31078;48.304;11.896;2022-09-09T10:19:53;96175.69;;;16.40;87.42
45345;BME280;31078;48.304;11.896;2022-09-09T10:22:26;96170.72;;;16.46;87.01
45345;BME280;31078;48.304;11.896;2022-09-09T10:25:26;96171.91;;;16.48;87.79
45345;BME280;31078;48.304;11.896;2022-09-09T10:28:03;96158.84;;;16.41;87.47
45345;BME280;31078;48.304;11.896;2022-09-09T10:30:41;96155.38;;;16.44;87.27
45345;BME280;31078;48.304;11.896;2022-09-09T10:33:22;96155.94;;;16.54;87.14
45345;BME280;31078;48.304;11.896;2022-09-09T10:36:02;96162.88;;;16.48;86.44
45345;BME280;31078;48.304;11.896;2022-09-09T10:38:39;96170.06;;;16.52;86.36
45345;BME280;31078;48.304;11.896;2022-09-09T10:41:18;96175.19;;;16.54;86.20
45345;BME280;31078;48.304;11.896;2022-09-09T10:44:03;96176.53;;;16.44;86.14
45345;BME280;31078;48.304;11.896;2022-09-09T10:46:41;96163.75;;;16.52;86.02
45345;BME280;31078;48.304;11.896;2022-09-09T10:49:20;96164.78;;;16.63;86.53
45345;BME280;31078;48.304;11.896;2022-09-09T10:51:56;96163.28;;;16.65;86.63
45345;BME280;31078;48.304;11.896;2022-09-09T10:54:33;96160.47;;;16.81;86.99
45345;BME280;31078;48.304;11.896;2022-09-09T10:57:10;96169.56;;;16.85;86.84
45345;BME280;31078;48.304;11.896;2022-09-09T10:59:42;96181.03;;;16.87;85.17
45345;BME280;31078;48.304;11.896;2022-09-09T11:02:16;96171.59;;;16.88;84.18
45345;BME280;31078;48.304;11.896;2022-09-09T11:04:49;96169.34;;;16.94;82.67
45345;BME280;31078;48.304;11.896;2022-09-09T11:07:24;96171.59;;;16.88;81.79
45345;BME280;31078;48.304;11.896;2022-09-09T11:09:58;96156.84;;;16.97;81.92
45345;BME280;31078;48.304;11.896;2022-09-09T11:12:29;96163.19;;;17.01;80.78
45345;BME280;31078;48.304;11.896;2022-09-09T11:14:59;96166.94;;;17.12;81.56
45345;BME280;31078;48.304;11.896;2022-09-09T11:17:35;96165.19;;;17.23;80.11
45345;BME280;31078;48.304;11.896;2022-09-09T11:20:06;96160.00;;;17.18;79.29
45345;BME280;31078;48.304;11.896;2022-09-09T11:22:39;96165.00;;;17.35;79.72
45345;BME280;31078;48.304;11.896;2022-09-09T11:25:15;96161.75;;;17.53;78.42
45345;BME280;31078;48.304;11.896;2022-09-09T11:27:54;96162.44;;;17.46;77.22
45345;BME280;31078;48.304;11.896;2022-09-09T11:30:31;96148.75;;;17.72;77.56
45345;BME280;31078;48.304;11.896;2022-09-09T11:33:33;96149.69;;;17.80;78.16
45345;BME280;31078;48.304;11.896;2022-09-09T11:36:16;96148.69;;;17.95;76.53
45345;BME280;31078;48.304;11.896;2022-09-09T11:38:50;96144.03;;;18.26;76.69
45345;BME280;31078;48.304;11.896;2022-09-09T11:41:18;96136.38;;;18.42;75.53
45345;BME280;31078;48.304;11.896;2022-09-09T11:43:49;96139.66;;;18.51;73.61
45345;BME280;31078;48.304;11.896;2022-09-09T11:46:18;96140.28;;;18.38;73.14
45345;BME280;31078;48.304;11.896;2022-09-09T11:48:58;96142.97;;;18.34;74.55
45345;BME280;31078;48.304;11.896;2022-09-09T11:51:27;96142.78;;;18.50;75.48
45345;BME280;31078;48.304;11.896;2022-09-09T11:53:56;96143.38;;;18.36;72.64
45345;BME280;31078;48.304;11.896;2022-09-09T11:56:26;96138.31;;;18.38;72.91
45345;BME280;31078;48.304;11.896;2022-09-09T11:58:57;96135.25;;;18.47;71.93
45345;BME280;31078;48.304;11.896;2022-09-09T12:01:33;96137.31;;;18.54;70.77
45345;BME280;31078;48.304;11.896;2022-09-09T12:07:04;96139.75;;;18.59;68.03
45345;BME280;31078;48.304;11.896;2022-09-09T12:09:45;96138.56;;;18.60;67.39
45345;BME280;31078;48.304;11.896;2022-09-09T12:12:25;96140.72;;;18.70;68.49
45345;BME280;31078;48.304;11.896;2022-09-09T12:15:00;96145.72;;;18.64;66.43
45345;BME280;31078;48.304;11.896;2022-09-09T12:17:28;96141.22;;;18.52;67.72
45345;BME280;31078;48.304;11.896;2022-09-09T12:20:06;96137.22;;;18.46;65.24
45345;BME280;31078;48.304;11.896;2022-09-09T12:22:39;96137.00;;;18.59;66.24
45345;BME280;31078;48.304;11.896;2022-09-09T12:25:17;96132.13;;;18.48;67.13
45345;BME280;31078;48.304;11.896;2022-09-09T12:27:54;96133.47;;;18.62;68.17
45345;BME280;31078;48.304;11.896;2022-09-09T12:30:32;96137.88;;;18.36;66.88
45345;BME280;31078;48.304;11.896;2022-09-09T12:33:01;96145.66;;;18.27;67.25
45345;BME280;31078;48.304;11.896;2022-09-09T12:35:29;96141.81;;;18.35;67.49
45345;BME280;31078;48.304;11.896;2022-09-09T12:37:59;96143.22;;;18.22;68.40
45345;BME280;31078;48.304;11.896;2022-09-09T12:40:28;96133.78;;;18.23;68.78
45345;BME280;31078;48.304;11.896;2022-09-09T12:42:56;96127.78;;;18.17;67.60
45345;BME280;31078;48.304;11.896;2022-09-09T12:45:25;96129.31;;;18.15;67.57
45345;BME280;31078;48.304;11.896;2022-09-09T12:47:55;96125.75;;;18.14;66.69
45345;BME280;31078;48.304;11.896;2022-09-09T12:50:25;96120.50;;;18.06;67.05
45345;BME280;31078;48.304;11.896;2022-09-09T12:52:55;96124.31;;;18.24;67.14
45345;BME280;31078;48.304;11.896;2022-09-09T12:55:27;96124.25;;;18.17;67.31
45345;BME280;31078;48.304;11.896;2022-09-09T12:57:55;96118.81;;;18.24;67.37
45345;BME280;31078;48.304;11.896;2022-09-09T13:00:24;96113.09;;;18.10;66.76
45345;BME280;31078;48.304;11.896;2022-09-09T13:02:54;96100.97;;;18.14;67.89
45345;BME280;31078;48.304;11.896;2022-09-09T13:05:23;96102.03;;;18.06;65.80
45345;BME280;31078;48.304;11.896;2022-09-09T13:07:51;96105.28;;;18.12;65.58
45345;BME280;31078;48.304;11.896;2022-09-09T13:10:24;96102.06;;;18.10;65.43
45345;BME280;31078;48.304;11.896;2022-09-09T13:12:52;96101.88;;;17.95;66.13